Time;durP1;ratioP1;P1;durP2;ratioP2;P2;SDS_P1;SDS_P2;PMS_P1;PMS_P2;Temp;Humidity;BMP_temperature;BMP_pressure;BME280_temperature;BME280_humidity;BME280_pressure;Samples;Min_cycle;Max_cycle;Signal;HPM_P1;HPM_P2
2022/05/01 00:00:09;;;;;;;40.37;17.70;;;7.90;99.90;;;;;;5108241;27;20206;-70
2022/05/01 00:02:35;;;;;;;55.73;20.00;;;7.90;99.90;;;;;;5111630;27;20957;-70
2022/05/01 00:05:01;;;;;;;47.90;17.30;;;7.90;99.90;;;;;;5108177;27;20609;-71
2022/05/01 00:07:28;;;;;;;52.70;19.13;;;7.90;99.90;;;;;;5102470;27;21045;-71
2022/05/01 00:09:53;;;;;;;37.30;16.17;;;7.90;99.90;;;;;;5103537;27;20441;-71
2022/05/01 00:12:19;;;;;;;58.93;17.03;;;7.80;99.90;;;;;;5105149;27;20448;-71
2022/05/01 00:14:45;;;;;;;48.33;20.20;;;7.80;99.90;;;;;;5106843;27;20600;-71
2022/05/01 00:17:11;;;;;;;52.57;19.90;;;7.80;99.90;;;;;;5103182;27;20629;-70
2022/05/01 00:19:36;;;;;;;46.53;18.47;;;7.90;99.90;;;;;;5102198;27;20188;-71
2022/05/01 00:22:02;;;;;;;44.43;17.60;;;7.90;99.90;;;;;;5104749;27;20449;-71
2022/05/01 00:24:28;;;;;;;43.97;18.13;;;7.90;99.90;;;;;;5103122;27;20213;-71
2022/05/01 00:26:54;;;;;;;47.03;17.37;;;7.90;99.90;;;;;;5121817;27;20203;-71
2022/05/01 00:29:19;;;;;;;39.00;18.53;;;7.90;99.90;;;;;;5100317;27;20218;-71
2022/05/01 00:31:45;;;;;;;41.23;17.43;;;7.90;99.90;;;;;;5103401;27;20209;-71
2022/05/01 00:36:55;;;;;;;55.90;18.13;;;7.90;99.90;;;;;;5108900;27;20235;-71
2022/05/01 00:39:20;;;;;;;51.13;18.50;;;7.90;99.90;;;;;;5105244;27;20437;-71
2022/05/01 00:41:46;;;;;;;46.10;17.00;;;7.90;99.90;;;;;;5106487;27;20207;-71
2022/05/01 00:44:16;;;;;;;45.03;18.17;;;8.10;99.90;;;;;;5110218;27;20662;-71
2022/05/01 00:46:50;;;;;;;37.20;17.13;;;7.90;99.90;;;;;;5109554;27;20244;-72
2022/05/01 00:49:22;;;;;;;35.60;16.67;;;7.90;99.90;;;;;;5111905;27;20839;-71
2022/05/01 00:51:58;;;;;;;48.07;18.67;;;7.90;99.90;;;;;;5104480;27;20474;-71
2022/05/01 00:54:25;;;;;;;41.50;17.13;;;7.90;99.90;;;;;;5108580;27;20437;-71
2022/05/01 00:56:54;;;;;;;48.77;16.47;;;7.90;99.90;;;;;;5105484;27;20923;-71
2022/05/01 00:59:20;;;;;;;55.07;18.10;;;7.90;99.90;;;;;;5102013;27;20438;-71
2022/05/01 01:01:49;;;;;;;40.47;15.23;;;7.90;99.90;;;;;;5103546;27;20936;-71
2022/05/01 01:04:15;;;;;;;56.03;20.20;;;7.90;99.90;;;;;;5102303;28;20468;-71
2022/05/01 01:06:42;;;;;;;56.83;17.80;;;7.90;99.90;;;;;;5103803;27;20449;-71
2022/05/01 01:09:09;;;;;;;42.90;15.67;;;7.90;99.90;;;;;;5110074;27;20183;-71
2022/05/01 01:11:36;;;;;;;44.47;17.47;;;7.90;99.90;;;;;;5098989;27;20434;-71
2022/05/01 01:14:05;;;;;;;42.70;15.30;;;7.90;99.90;;;;;;5099602;27;20446;-71
2022/05/01 01:16:34;;;;;;;36.53;15.10;;;7.90;99.90;;;;;;5107644;27;20447;-71
2022/05/01 01:19:01;;;;;;;40.43;16.60;;;7.80;99.90;;;;;;5114481;27;20456;-71
2022/05/01 01:21:27;;;;;;;36.03;15.43;;;7.90;99.90;;;;;;5095712;27;20527;-71
2022/05/01 01:23:53;;;;;;;46.53;17.50;;;7.90;99.90;;;;;;5098928;28;21072;-71
2022/05/01 01:26:20;;;;;;;32.37;15.10;;;7.80;99.90;;;;;;5106915;27;20229;-71
2022/05/01 01:28:47;;;;;;;47.00;18.20;;;7.80;99.90;;;;;;5110910;27;20498;-71
2022/05/01 01:34:03;;;;;;;32.40;14.20;;;7.70;99.90;;;;;;5107149;27;20514;-71
2022/05/01 01:36:30;;;;;;;33.60;15.97;;;7.60;99.90;;;;;;5105192;27;20428;-71
2022/05/01 01:38:56;;;;;;;34.23;15.90;;;7.60;99.90;;;;;;5107166;27;20440;-74
2022/05/01 01:41:28;;;;;;;48.40;14.70;;;7.50;99.90;;;;;;5108838;27;20493;-74
2022/05/01 01:43:54;;;;;;;58.43;16.17;;;7.50;99.90;;;;;;5106024;28;20474;-73
2022/05/01 01:46:20;;;;;;;41.63;16.87;;;7.50;99.90;;;;;;5093772;28;20452;-71
2022/05/01 01:48:47;;;;;;;41.20;16.87;;;7.50;99.90;;;;;;5107080;28;21423;-71
2022/05/01 01:51:13;;;;;;;48.07;16.80;;;7.50;99.90;;;;;;5106632;28;20475;-71
2022/05/01 01:53:39;;;;;;;47.43;18.27;;;7.50;99.90;;;;;;5107701;28;20528;-71
2022/05/01 01:56:07;;;;;;;35.83;16.00;;;7.50;99.90;;;;;;5106402;28;20533;-71
2022/05/01 01:58:34;;;;;;;37.87;15.67;;;7.60;99.90;;;;;;5103746;28;20179;-71
2022/05/01 02:00:59;;;;;;;37.10;16.00;;;7.60;99.90;;;;;;5094320;28;20441;-71
2022/05/01 02:03:26;;;;;;;35.47;15.80;;;7.60;99.90;;;;;;5104871;28;20445;-71
2022/05/01 02:05:52;;;;;;;43.87;15.93;;;7.60;99.90;;;;;;5102023;28;20211;-71
2022/05/01 02:08:18;;;;;;;35.60;13.27;;;7.60;99.90;;;;;;5102677;28;20863;-71
2022/05/01 02:10:44;;;;;;;45.23;17.27;;;7.60;99.90;;;;;;5106424;28;20433;-71
2022/05/01 02:13:10;;;;;;;44.20;17.20;;;7.60;99.90;;;;;;5109800;28;20444;-71
2022/05/01 02:15:37;;;;;;;37.27;16.07;;;7.60;99.90;;;;;;5094862;28;20911;-71
2022/05/01 02:18:04;;;;;;;33.17;15.40;;;7.60;99.90;;;;;;5105469;28;20798;-71
2022/05/01 02:23:16;;;;;;;31.07;14.40;;;7.60;99.90;;;;;;5109378;28;20447;-71
2022/05/01 02:25:42;;;;;;;42.43;15.33;;;7.60;99.90;;;;;;5106549;28;20483;-71
2022/05/01 02:28:07;;;;;;;32.40;15.07;;;7.60;99.90;;;;;;5102215;28;20434;-72
2022/05/01 02:30:33;;;;;;;32.07;14.00;;;7.60;99.90;;;;;;5108381;27;20278;-71
2022/05/01 02:32:59;;;;;;;32.90;15.07;;;7.60;99.90;;;;;;5114206;27;20184;-71
2022/05/01 02:35:24;;;;;;;29.60;14.70;;;7.60;99.90;;;;;;5106035;27;21088;-71
2022/05/01 02:37:50;;;;;;;32.30;13.27;;;7.60;99.90;;;;;;5100476;27;20210;-71
2022/05/01 02:40:16;;;;;;;39.27;16.13;;;7.60;99.90;;;;;;5099238;27;20229;-71
2022/05/01 02:42:42;;;;;;;41.40;15.13;;;7.60;99.90;;;;;;5105917;27;20267;-71
2022/05/01 02:45:08;;;;;;;31.10;14.97;;;7.70;99.90;;;;;;5110097;27;20215;-71
2022/05/01 02:47:34;;;;;;;34.07;15.20;;;7.70;99.90;;;;;;5111046;27;20446;-71
2022/05/01 02:50:00;;;;;;;33.67;15.33;;;7.70;99.90;;;;;;5106613;27;20448;-71
2022/05/01 02:52:26;;;;;;;32.23;14.67;;;7.70;99.90;;;;;;5106520;27;20215;-70
2022/05/01 02:54:52;;;;;;;40.53;14.37;;;7.70;99.90;;;;;;5114118;27;20525;-71
2022/05/01 02:57:18;;;;;;;32.77;15.20;;;7.80;99.90;;;;;;5101933;27;20196;-71
2022/05/01 02:59:44;;;;;;;37.90;14.50;;;7.80;99.90;;;;;;5106936;27;20199;-71
2022/05/01 03:02:09;;;;;;;35.77;14.70;;;7.80;99.90;;;;;;5103252;27;20748;-71
2022/05/01 03:04:35;;;;;;;32.23;14.40;;;7.80;99.90;;;;;;5103243;27;20196;-71
2022/05/01 03:07:04;;;;;;;31.33;14.73;;;7.80;99.90;;;;;;5109784;27;20998;-71
2022/05/01 03:09:30;;;;;;;34.93;15.13;;;7.80;99.90;;;;;;5113083;27;20439;-71
2022/05/01 03:11:55;;;;;;;29.73;14.67;;;7.80;99.90;;;;;;5104470;27;21200;-71
2022/05/01 03:14:21;;;;;;;35.43;13.97;;;7.80;99.90;;;;;;5108768;27;20198;-71
2022/05/01 03:16:46;;;;;;;35.47;15.10;;;7.80;99.90;;;;;;5110266;27;20187;-71
2022/05/01 03:22:13;;;;;;;38.63;14.43;;;7.80;99.90;;;;;;5109046;27;20573;-71
2022/05/01 03:24:42;;;;;;;37.80;15.07;;;7.80;99.90;;;;;;5113446;27;20469;-73
2022/05/01 03:27:10;;;;;;;38.33;14.50;;;7.80;99.90;;;;;;5109671;27;20850;-74
2022/05/01 03:29:37;;;;;;;38.37;15.27;;;7.80;99.90;;;;;;5106348;27;20453;-73
2022/05/01 03:32:07;;;;;;;36.30;16.13;;;7.80;99.90;;;;;;5109990;27;20449;-73
2022/05/01 03:34:37;;;;;;;45.23;16.10;;;7.80;99.90;;;;;;5115182;27;20449;-70
2022/05/01 03:37:09;;;;;;;44.77;16.13;;;7.80;99.90;;;;;;5101667;27;20475;-71
2022/05/01 03:39:35;;;;;;;42.77;16.93;;;7.80;99.90;;;;;;5104448;27;20778;-74
2022/05/01 03:42:02;;;;;;;46.90;15.93;;;7.80;99.90;;;;;;5093816;27;20447;-73
2022/05/01 03:44:28;;;;;;;40.50;16.40;;;7.80;99.90;;;;;;5098907;27;20809;-73
2022/05/01 03:46:54;;;;;;;40.37;17.40;;;7.80;99.90;;;;;;5107964;27;20437;-73
2022/05/01 03:49:19;;;;;;;35.90;17.47;;;7.80;99.90;;;;;;5103237;27;20698;-73
2022/05/01 03:51:46;;;;;;;45.50;17.63;;;7.80;99.90;;;;;;5108618;27;20179;-73
2022/05/01 03:54:12;;;;;;;46.03;14.43;;;7.80;99.90;;;;;;5106477;27;20181;-73
2022/05/01 03:56:38;;;;;;;37.87;16.20;;;7.90;99.90;;;;;;5114770;27;20486;-73
2022/05/01 03:59:04;;;;;;;33.13;15.50;;;7.80;99.90;;;;;;5112301;27;20210;-73
2022/05/01 04:01:31;;;;;;;42.83;16.67;;;7.90;99.90;;;;;;5104117;27;20182;-73
2022/05/01 04:03:57;;;;;;;35.50;16.70;;;7.90;99.90;;;;;;5102959;27;20521;-73
2022/05/01 04:06:23;;;;;;;39.67;15.07;;;7.90;99.90;;;;;;5104192;27;20433;-73
2022/05/01 04:08:48;;;;;;;39.50;16.53;;;7.90;99.90;;;;;;5108725;27;20179;-73
2022/05/01 04:11:14;;;;;;;46.87;18.30;;;7.90;99.90;;;;;;5101153;27;20440;-71
2022/05/01 04:13:41;;;;;;;44.33;18.37;;;7.80;99.90;;;;;;5108593;27;20444;-71
2022/05/01 04:16:07;;;;;;;42.00;16.67;;;7.90;99.90;;;;;;5109101;27;20774;-71
2022/05/01 04:18:34;;;;;;;40.93;17.00;;;7.90;99.90;;;;;;5110703;27;20441;-71
2022/05/01 04:21:00;;;;;;;41.63;17.13;;;7.90;99.90;;;;;;5109943;27;20394;-71
2022/05/01 04:23:26;;;;;;;41.53;17.87;;;7.90;99.90;;;;;;5109146;27;20438;-72
2022/05/01 04:25:52;;;;;;;43.53;19.17;;;7.90;99.90;;;;;;5109493;27;20528;-72
2022/05/01 04:28:18;;;;;;;42.47;16.87;;;7.90;99.90;;;;;;5100857;27;20473;-72
2022/05/01 04:30:46;;;;;;;30.77;15.60;;;7.90;99.90;;;;;;5109085;27;20560;-72
2022/05/01 04:33:13;;;;;;;38.50;15.37;;;7.90;99.90;;;;;;5113341;27;20436;-72
2022/05/01 04:35:43;;;;;;;38.97;17.57;;;8.00;99.90;;;;;;5104648;27;20444;-72
2022/05/01 04:38:23;;;;;;;41.87;18.33;;;7.90;99.90;;;;;;5110200;27;20490;-71
2022/05/01 04:40:51;;;;;;;45.93;16.40;;;7.90;99.90;;;;;;5110446;27;20971;-72
2022/05/01 04:43:25;;;;;;;35.13;17.00;;;7.90;99.90;;;;;;5090559;27;20903;-72
2022/05/01 04:45:54;;;;;;;42.80;17.73;;;7.90;99.90;;;;;;5107000;27;20468;-72
2022/05/01 04:48:21;;;;;;;35.93;16.20;;;7.90;99.90;;;;;;5109686;27;20433;-71
2022/05/01 04:50:48;;;;;;;47.57;17.47;;;7.90;99.90;;;;;;5107026;27;20432;-71
2022/05/01 04:53:15;;;;;;;41.47;17.40;;;7.90;99.90;;;;;;5100954;27;20428;-72
2022/05/01 04:55:43;;;;;;;44.23;16.30;;;7.90;99.90;;;;;;5105907;27;20438;-72
2022/05/01 04:58:10;;;;;;;39.80;16.87;;;7.90;99.90;;;;;;5108349;27;20445;-72
2022/05/01 05:00:36;;;;;;;51.80;17.77;;;8.00;99.90;;;;;;5108481;27;21102;-72
2022/05/01 05:03:04;;;;;;;44.73;17.33;;;8.00;99.90;;;;;;5105237;27;20440;-71
2022/05/01 05:05:31;;;;;;;44.07;17.27;;;8.00;99.90;;;;;;5098106;27;20547;-71
2022/05/01 05:09:53;;;;;;;38.73;16.33;;;8.00;99.90;;;;;;5106559;27;20814;-71
2022/05/01 05:10:47;;;;;;;33.47;16.70;;;8.00;99.90;;;;;;5103497;27;20433;-71
2022/05/01 05:13:22;;;;;;;39.43;16.10;;;8.00;99.90;;;;;;5107312;27;20476;-73
2022/05/01 05:15:48;;;;;;;47.23;18.53;;;8.00;99.90;;;;;;5108987;27;20516;-73
2022/05/01 05:18:14;;;;;;;39.23;15.13;;;8.00;99.90;;;;;;5104688;27;20970;-73
2022/05/01 05:20:39;;;;;;;37.63;15.97;;;8.10;99.90;;;;;;5102230;27;20563;-73
2022/05/01 05:23:05;;;;;;;48.80;18.43;;;8.10;99.90;;;;;;5108341;27;20555;-73
2022/05/01 05:25:31;;;;;;;37.67;17.90;;;8.20;99.90;;;;;;5108132;27;20648;-73
2022/05/01 05:27:57;;;;;;;50.57;18.10;;;8.10;99.90;;;;;;5108579;27;20562;-73
2022/05/01 05:30:22;;;;;;;56.63;19.13;;;8.30;99.90;;;;;;5106772;27;20244;-74
2022/05/01 05:32:49;;;;;;;39.97;17.00;;;8.20;99.90;;;;;;5111074;27;20187;-71
2022/05/01 05:35:15;;;;;;;41.67;17.27;;;8.20;99.90;;;;;;5105431;27;20187;-72
2022/05/01 05:37:41;;;;;;;51.57;19.93;;;8.20;99.90;;;;;;5103994;27;20485;-71
2022/05/01 05:40:07;;;;;;;44.03;16.37;;;8.20;99.90;;;;;;5109907;27;20436;-72
2022/05/01 05:42:33;;;;;;;35.80;16.50;;;8.30;99.90;;;;;;5104857;28;20196;-72
2022/05/01 05:44:59;;;;;;;43.40;16.43;;;8.30;99.90;;;;;;5104818;28;20460;-72
2022/05/01 05:47:25;;;;;;;40.13;16.60;;;8.40;99.90;;;;;;5103033;27;20175;-72
2022/05/01 05:49:51;;;;;;;42.53;17.00;;;8.40;99.90;;;;;;5101537;28;20440;-72
2022/05/01 05:52:17;;;;;;;48.10;17.73;;;8.40;99.90;;;;;;5099964;28;20204;-71
2022/05/01 05:54:43;;;;;;;37.10;16.57;;;8.40;99.90;;;;;;5107581;28;20511;-72
2022/05/01 05:57:09;;;;;;;43.63;17.03;;;8.40;99.90;;;;;;5104781;28;20265;-72
2022/05/01 05:59:34;;;;;;;44.17;17.00;;;8.40;99.90;;;;;;5085415;28;20195;-72
2022/05/01 06:02:00;;;;;;;51.30;17.80;;;8.40;99.90;;;;;;5094593;27;20220;-71
2022/05/01 06:04:26;;;;;;;47.97;16.33;;;8.40;99.90;;;;;;5105708;27;20210;-72
2022/05/01 06:06:52;;;;;;;45.47;17.67;;;8.50;99.90;;;;;;5112439;27;20793;-72
2022/05/01 06:09:17;;;;;;;43.10;16.67;;;8.50;99.90;;;;;;5107173;27;20188;-72
2022/05/01 06:11:43;;;;;;;36.87;16.83;;;8.50;99.90;;;;;;5115054;27;20194;-72
2022/05/01 06:14:09;;;;;;;41.83;16.87;;;8.50;99.90;;;;;;5108149;27;20271;-72
2022/05/01 06:16:35;;;;;;;33.50;15.07;;;8.60;99.90;;;;;;5105123;27;20187;-72
2022/05/01 06:19:00;;;;;;;32.17;15.77;;;8.70;99.90;;;;;;5113892;27;20186;-72
2022/05/01 06:21:27;;;;;;;24.40;12.80;;;8.60;99.90;;;;;;5110793;27;20456;-73
2022/05/01 06:23:53;;;;;;;42.93;14.80;;;8.70;99.90;;;;;;5109889;27;20199;-72
2022/05/01 06:26:18;;;;;;;31.43;13.80;;;8.60;99.90;;;;;;5110128;27;20536;-73
2022/05/01 06:28:44;;;;;;;36.13;13.97;;;8.60;99.90;;;;;;5109567;27;20515;-73
2022/05/01 06:31:10;;;;;;;36.63;15.20;;;8.60;99.90;;;;;;5108016;27;20236;-72
2022/05/01 06:33:37;;;;;;;47.30;14.30;;;8.60;99.90;;;;;;5106929;27;20711;-72
2022/05/01 06:36:03;;;;;;;30.63;13.20;;;8.60;99.90;;;;;;5106456;27;20440;-72
2022/05/01 06:38:29;;;;;;;36.03;16.43;;;8.60;99.90;;;;;;5103355;27;20439;-72
2022/05/01 06:40:55;;;;;;;33.37;14.60;;;8.60;99.90;;;;;;5107700;27;20943;-72
2022/05/01 06:43:21;;;;;;;37.83;14.93;;;8.60;99.90;;;;;;5104281;27;20528;-73
2022/05/01 06:45:48;;;;;;;33.27;13.97;;;8.50;99.90;;;;;;5106783;27;20529;-72
2022/05/01 06:48:14;;;;;;;30.97;14.07;;;8.50;99.90;;;;;;5104992;27;20187;-72
2022/05/01 06:50:40;;;;;;;30.53;13.87;;;8.50;99.90;;;;;;5106834;27;20429;-71
2022/05/01 06:53:06;;;;;;;35.07;14.30;;;8.60;99.90;;;;;;5107692;27;20429;-71
2022/05/01 06:55:32;;;;;;;33.53;15.17;;;8.60;99.90;;;;;;5108582;27;20454;-72
2022/05/01 06:57:58;;;;;;;38.27;13.77;;;8.60;99.90;;;;;;5107830;27;20968;-72
2022/05/01 07:00:24;;;;;;;25.73;12.03;;;8.60;99.90;;;;;;5104295;27;20191;-71
2022/05/01 07:02:54;;;;;;;29.53;13.60;;;8.70;99.90;;;;;;5113428;27;20187;-71
2022/05/01 07:05:21;;;;;;;33.43;12.60;;;8.70;99.90;;;;;;5109325;27;20236;-72
2022/05/01 07:07:49;;;;;;;39.97;15.20;;;8.80;99.90;;;;;;5107191;27;20912;-71
2022/05/01 07:10:15;;;;;;;36.70;13.10;;;8.70;99.90;;;;;;5110584;27;20446;-72
2022/05/01 07:12:41;;;;;;;33.20;13.33;;;8.70;99.90;;;;;;5114053;27;20897;-71
2022/05/01 07:15:07;;;;;;;30.47;12.60;;;8.70;99.90;;;;;;5109369;27;20493;-72
2022/05/01 07:17:33;;;;;;;29.37;13.03;;;8.70;99.90;;;;;;5106049;27;20731;-71
2022/05/01 07:19:59;;;;;;;26.70;12.47;;;8.70;99.90;;;;;;5109266;27;20245;-71
2022/05/01 07:22:25;;;;;;;29.10;11.97;;;8.70;99.90;;;;;;5108676;27;20526;-71
2022/05/01 07:24:51;;;;;;;29.93;12.20;;;8.70;99.90;;;;;;5105082;27;20943;-71
2022/05/01 07:27:17;;;;;;;34.33;13.10;;;8.70;99.90;;;;;;5106860;27;20616;-72
2022/05/01 07:29:44;;;;;;;28.80;12.07;;;8.70;99.90;;;;;;5103762;27;20195;-70
2022/05/01 07:32:10;;;;;;;30.00;14.00;;;8.70;99.90;;;;;;5104648;27;20195;-70
2022/05/01 07:34:36;;;;;;;27.00;12.40;;;8.70;99.90;;;;;;5112093;27;20470;-70
2022/05/01 07:37:01;;;;;;;26.33;12.43;;;8.70;99.90;;;;;;5109632;27;20531;-72
2022/05/01 07:39:27;;;;;;;30.87;12.03;;;8.80;99.90;;;;;;5106486;27;20275;-71
2022/05/01 07:41:53;;;;;;;25.47;12.23;;;8.80;99.90;;;;;;5104555;27;20300;-70
2022/05/01 07:44:18;;;;;;;26.70;11.47;;;8.90;99.90;;;;;;5105948;27;20882;-70
2022/05/01 07:46:44;;;;;;;24.87;11.83;;;8.80;99.90;;;;;;5104948;27;20199;-70
2022/05/01 07:49:11;;;;;;;20.40;10.90;;;8.90;99.90;;;;;;5101981;27;20830;-71
2022/05/01 07:51:37;;;;;;;26.20;12.80;;;9.00;99.90;;;;;;5108951;27;20434;-70
2022/05/01 07:54:04;;;;;;;22.50;10.30;;;9.00;99.90;;;;;;5108703;27;20778;-70
2022/05/01 07:56:31;;;;;;;25.13;9.30;;;9.10;99.90;;;;;;5106476;27;20452;-70
2022/05/01 07:58:57;;;;;;;21.83;9.67;;;9.20;99.90;;;;;;5103088;27;20445;-71
2022/05/01 08:01:23;;;;;;;18.93;9.33;;;9.30;99.90;;;;;;5105589;27;21304;-71
2022/05/01 08:06:33;;;;;;;24.10;11.00;;;9.30;99.90;;;;;;5107268;27;20454;-71
2022/05/01 08:08:59;;;;;;;24.83;10.50;;;9.50;99.90;;;;;;5111412;27;21385;-70
2022/05/01 08:11:25;;;;;;;17.20;8.90;;;9.30;99.90;;;;;;5109491;27;20438;-70
2022/05/01 08:13:51;;;;;;;17.07;8.80;;;9.60;99.90;;;;;;5105191;27;20191;-71
2022/05/01 08:16:17;;;;;;;17.60;8.57;;;9.60;99.90;;;;;;5098883;27;20441;-70
2022/05/01 08:21:31;;;;;;;22.57;9.33;;;9.80;99.90;;;;;;5100298;27;20484;-71
2022/05/01 08:23:57;;;;;;;21.47;10.07;;;9.90;99.90;;;;;;5103858;27;20441;-70
2022/05/01 08:26:23;;;;;;;17.60;8.73;;;9.90;99.90;;;;;;5104610;27;20559;-70
2022/05/01 08:28:54;;;;;;;20.03;7.97;;;10.10;99.90;;;;;;5109556;27;20456;-70
2022/05/01 08:31:20;;;;;;;18.83;9.17;;;10.10;99.90;;;;;;5103560;27;21254;-72
2022/05/01 08:33:46;;;;;;;18.60;8.30;;;10.10;99.90;;;;;;5106678;27;20472;-72
2022/05/01 08:36:11;;;;;;;15.50;7.53;;;10.10;99.90;;;;;;5091877;27;20447;-72
2022/05/01 08:38:37;;;;;;;16.40;8.33;;;10.10;99.90;;;;;;5113458;27;20183;-70
2022/05/01 08:41:04;;;;;;;16.90;7.73;;;10.00;99.90;;;;;;5105899;27;20615;-69
2022/05/01 08:43:31;;;;;;;18.47;8.33;;;10.00;99.90;;;;;;5106647;27;20426;-70
2022/05/01 08:46:15;;;;;;;22.10;8.40;;;9.90;99.90;;;;;;5109641;27;20855;-70
2022/05/01 08:48:47;;;;;;;17.93;8.10;;;10.00;99.90;;;;;;5112610;27;20440;-66
2022/05/01 08:51:16;;;;;;;13.73;6.17;;;10.10;99.90;;;;;;5094534;27;20434;-67
2022/05/01 08:53:43;;;;;;;18.03;8.53;;;10.10;99.90;;;;;;5103303;27;20752;-68
2022/05/01 08:56:10;;;;;;;16.33;8.67;;;10.10;99.90;;;;;;5107067;27;20441;-68
2022/05/01 08:58:39;;;;;;;20.30;7.53;;;10.00;99.90;;;;;;5105839;27;20720;-68
2022/05/01 09:01:06;;;;;;;13.30;6.90;;;10.10;99.90;;;;;;5111327;27;20473;-67
2022/05/01 09:03:32;;;;;;;17.67;7.77;;;10.20;99.90;;;;;;5099352;27;20465;-69
2022/05/01 09:05:58;;;;;;;14.53;7.17;;;10.20;99.90;;;;;;5103221;27;20458;-69
2022/05/01 09:08:24;;;;;;;12.93;7.03;;;10.30;99.90;;;;;;5107633;27;20831;-68
2022/05/01 09:10:50;;;;;;;23.50;7.77;;;10.30;99.90;;;;;;5102552;27;20266;-68
2022/05/01 09:13:16;;;;;;;17.87;8.33;;;10.30;99.90;;;;;;5101430;27;20443;-70
2022/05/01 09:15:46;;;;;;;22.07;9.17;;;10.40;99.90;;;;;;5100659;27;20179;-71
2022/05/01 09:18:14;;;;;;;20.23;8.07;;;10.40;99.90;;;;;;5109112;27;20519;-71
2022/05/01 09:21:08;;;;;;;22.70;9.10;;;10.50;99.90;;;;;;5121491;27;20416;-70
2022/05/01 09:23:39;;;;;;;18.00;8.10;;;10.60;99.90;;;;;;5118969;27;20841;-70
2022/05/01 09:26:09;;;;;;;17.90;8.97;;;10.70;99.90;;;;;;5122655;27;20479;-68
2022/05/01 09:28:46;;;;;;;20.07;8.00;;;10.90;99.90;;;;;;5106576;27;20440;-68
2022/05/01 09:31:11;;;;;;;24.50;7.90;;;11.00;99.90;;;;;;5114994;27;20983;-68
2022/05/01 09:33:37;;;;;;;14.37;7.27;;;11.10;99.90;;;;;;5104130;28;20430;-68
2022/05/01 09:36:03;;;;;;;16.07;8.20;;;11.20;99.90;;;;;;5103827;27;20195;-69
2022/05/01 09:38:29;;;;;;;25.37;8.13;;;11.20;99.90;;;;;;5105847;27;20271;-69
2022/05/01 09:41:00;;;;;;;15.93;8.47;;;11.40;99.90;;;;;;5092208;27;20250;-69
2022/05/01 09:43:36;;;;;;;18.20;8.80;;;11.30;99.90;;;;;;5115174;27;20175;-68
2022/05/01 09:46:24;;;;;;;14.37;7.67;;;11.50;99.90;;;;;;5110602;27;20532;-69
2022/05/01 09:49:01;;;;;;;18.47;8.77;;;11.60;99.90;;;;;;5114769;27;20802;-68
2022/05/01 09:51:32;;;;;;;19.63;8.70;;;11.80;99.90;;;;;;5104606;28;20429;-69
2022/05/01 09:53:59;;;;;;;19.27;8.90;;;12.10;99.90;;;;;;5115649;28;20424;-69
2022/05/01 09:56:24;;;;;;;16.80;8.67;;;12.00;99.90;;;;;;5108293;28;20434;-68
2022/05/01 09:59:01;;;;;;;21.90;7.63;;;12.00;99.90;;;;;;5112962;28;20428;-68
2022/05/01 10:01:30;;;;;;;11.57;6.57;;;12.10;99.80;;;;;;5114565;28;20183;-69
2022/05/01 10:04:00;;;;;;;22.23;7.73;;;12.20;99.00;;;;;;5116866;28;20460;-69
2022/05/01 10:06:31;;;;;;;15.03;8.17;;;12.40;98.90;;;;;;5112659;28;21095;-69
2022/05/01 10:08:58;;;;;;;16.87;7.17;;;12.20;97.50;;;;;;5108165;28;20429;-70
2022/05/01 10:11:24;;;;;;;13.63;6.37;;;12.20;98.40;;;;;;5095210;28;20457;-70
2022/05/01 10:13:51;;;;;;;12.97;7.23;;;12.10;97.90;;;;;;5116252;28;20948;-70
2022/05/01 10:16:17;;;;;;;17.90;6.30;;;12.10;98.50;;;;;;5109618;28;20428;-70
2022/05/01 10:18:45;;;;;;;8.57;5.30;;;12.20;98.30;;;;;;5109444;28;20466;-70
2022/05/01 10:21:11;;;;;;;10.13;5.00;;;12.10;96.10;;;;;;5110618;28;21194;-70
2022/05/01 10:23:39;;;;;;;6.80;4.57;;;11.70;96.40;;;;;;5111145;28;20422;-70
2022/05/01 10:26:11;;;;;;;12.43;5.63;;;11.70;97.10;;;;;;5112028;28;20476;-70
2022/05/01 10:28:47;;;;;;;10.93;5.83;;;11.60;97.50;;;;;;5110532;28;20891;-70
2022/05/01 10:34:38;;;;;;;10.53;5.90;;;11.60;98.20;;;;;;5111871;28;20462;-70
2022/05/01 10:37:40;;;;;;;12.67;5.90;;;11.60;98.10;;;;;;5110930;28;20428;-70
2022/05/01 10:40:06;;;;;;;14.47;6.80;;;11.80;98.40;;;;;;5104548;28;20428;-70
2022/05/01 10:42:38;;;;;;;10.17;6.47;;;11.90;98.40;;;;;;5108429;28;20469;-70
2022/05/01 10:45:25;;;;;;;13.53;7.10;;;12.00;97.90;;;;;;5107734;28;20456;-70
2022/05/01 10:47:52;;;;;;;10.50;5.30;;;11.90;98.70;;;;;;5108913;28;20430;-71
2022/05/01 10:50:23;;;;;;;15.20;6.80;;;12.00;98.70;;;;;;5117233;27;20474;-69
2022/05/01 10:53:02;;;;;;;12.30;5.70;;;12.10;97.90;;;;;;5110080;27;20460;-69
2022/05/01 10:55:42;;;;;;;18.13;7.40;;;12.20;97.30;;;;;;5120904;27;20900;-71
2022/05/01 10:58:26;;;;;;;14.40;6.93;;;12.20;97.50;;;;;;5111645;27;20429;-70
2022/05/01 11:00:52;;;;;;;12.40;6.30;;;12.10;97.80;;;;;;5110343;27;20441;-70
2022/05/01 11:03:29;;;;;;;11.70;6.60;;;12.30;98.20;;;;;;5114530;27;20441;-72
2022/05/01 11:06:04;;;;;;;11.83;6.43;;;12.30;96.20;;;;;;5109807;27;20503;-70
2022/05/01 11:08:38;;;;;;;13.23;5.83;;;12.50;97.00;;;;;;5117694;27;20428;-71
2022/05/01 11:11:10;;;;;;;13.60;6.40;;;12.60;97.10;;;;;;5109768;27;20416;-71
2022/05/01 11:13:38;;;;;;;13.30;6.50;;;12.60;96.70;;;;;;5120237;27;20472;-71
2022/05/01 11:16:08;;;;;;;12.47;5.70;;;12.70;96.60;;;;;;5117709;27;20581;-71
2022/05/01 11:18:34;;;;;;;16.83;6.67;;;12.70;96.00;;;;;;5114738;27;21237;-71
2022/05/01 11:21:21;;;;;;;10.67;5.30;;;12.60;96.40;;;;;;5113101;27;20476;-71
2022/05/01 11:23:57;;;;;;;13.77;6.37;;;12.50;96.10;;;;;;5109033;27;20313;-71
2022/05/01 11:26:22;;;;;;;9.73;4.83;;;12.50;95.60;;;;;;5113087;27;20534;-71
2022/05/01 11:28:54;;;;;;;18.23;5.50;;;12.50;94.30;;;;;;5117626;27;20461;-70
2022/05/01 11:31:38;;;;;;;12.37;5.27;;;12.40;94.70;;;;;;5123406;27;20218;-70
2022/05/01 11:34:16;;;;;;;13.67;5.83;;;12.40;94.50;;;;;;5117619;27;20520;-70
2022/05/01 11:37:01;;;;;;;10.90;4.23;;;12.50;94.40;;;;;;5118819;27;20969;-70
2022/05/01 11:39:46;;;;;;;7.37;4.57;;;12.50;94.00;;;;;;5112142;27;20452;-71
2022/05/01 11:42:24;;;;;;;8.10;4.03;;;12.80;93.40;;;;;;5117120;27;20413;-71
2022/05/01 11:44:54;;;;;;;10.70;5.17;;;13.10;92.30;;;;;;5121244;27;20475;-70
2022/05/01 11:47:22;;;;;;;10.40;4.93;;;13.20;92.50;;;;;;5117230;27;20425;-69
2022/05/01 11:49:48;;;;;;;9.43;3.73;;;13.30;92.20;;;;;;5100881;27;20433;-71
2022/05/01 11:52:14;;;;;;;13.83;4.00;;;13.20;93.00;;;;;;5123229;27;20418;-71
2022/05/01 11:54:44;;;;;;;9.83;5.07;;;13.20;92.60;;;;;;5125732;27;20195;-71
2022/05/01 12:02:38;;;;;;;8.70;4.70;;;13.00;93.50;;;;;;5129080;27;20454;-71
2022/05/01 12:05:05;;;;;;;9.03;4.37;;;13.10;92.50;;;;;;5129063;27;20452;-70
2022/05/01 12:07:31;;;;;;;10.97;5.53;;;13.20;92.60;;;;;;5124666;27;20179;-71
2022/05/01 12:09:58;;;;;;;10.33;4.40;;;13.00;92.70;;;;;;5125768;27;21323;-71
2022/05/01 12:12:30;;;;;;;10.40;5.30;;;13.10;92.70;;;;;;5120151;27;20897;-71
2022/05/01 12:14:58;;;;;;;9.00;5.00;;;13.10;92.40;;;;;;5125843;27;20941;-71
2022/05/01 12:17:24;;;;;;;10.37;4.10;;;13.50;92.20;;;;;;5124774;27;20429;-72
2022/05/01 12:19:51;;;;;;;10.40;5.07;;;13.70;92.10;;;;;;5123968;27;20941;-69
2022/05/01 12:22:21;;;;;;;13.70;5.13;;;14.10;90.70;;;;;;5111940;27;20302;-69
2022/05/01 12:24:48;;;;;;;6.40;3.70;;;14.30;90.40;;;;;;5123866;27;20878;-70
2022/05/01 12:27:18;;;;;;;7.63;4.23;;;14.30;90.90;;;;;;5110412;27;20496;-71
2022/05/01 12:29:53;;;;;;;13.13;4.67;;;14.40;90.40;;;;;;5123821;27;20434;-70
2022/05/01 12:32:19;;;;;;;8.07;4.47;;;14.70;90.40;;;;;;5123220;27;20425;-70
2022/05/01 12:34:44;;;;;;;7.33;4.03;;;15.20;90.30;;;;;;5120959;27;21225;-69
2022/05/01 12:37:16;;;;;;;7.67;3.43;;;15.40;87.40;;;;;;5124176;27;20435;-70
2022/05/01 12:39:56;;;;;;;4.97;3.33;;;15.60;87.60;;;;;;5123005;27;20866;-69
2022/05/01 12:45:17;;;;;;;7.07;3.03;;;15.60;85.10;;;;;;5129014;27;20497;-70
2022/05/01 12:47:50;;;;;;;3.77;2.40;;;15.50;87.50;;;;;;5118062;27;20413;-70
2022/05/01 12:50:19;;;;;;;6.87;2.93;;;15.70;88.70;;;;;;5132191;27;20416;-70
2022/05/01 12:52:53;;;;;;;8.60;4.40;;;15.40;87.50;;;;;;5109128;27;20421;-70
2022/05/01 12:55:21;;;;;;;9.50;4.13;;;15.40;85.60;;;;;;5114168;27;20456;-69
2022/05/01 12:57:49;;;;;;;16.40;4.50;;;15.20;87.50;;;;;;5122710;27;21021;-69
2022/05/01 13:00:35;;;;;;;14.37;3.60;;;15.00;87.40;;;;;;5129116;27;20874;-69
2022/05/01 13:03:29;;;;;;;10.03;3.80;;;15.00;89.40;;;;;;5120857;27;20768;-70
2022/05/01 13:05:55;;;;;;;8.10;4.17;;;15.10;89.30;;;;;;5127202;27;20574;-70
2022/05/01 13:08:21;;;;;;;7.93;3.63;;;15.20;87.10;;;;;;5117845;27;20525;-70
2022/05/01 13:11:08;;;;;;;7.63;3.30;;;15.30;86.20;;;;;;5119753;27;20190;-70